Time;durP1;ratioP1;P1;durP2;ratioP2;P2;SDS_P1;SDS_P2;PMS_P1;PMS_P2;Temp;Humidity;BMP_temperature;BMP_pressure;BME280_temperature;BME280_humidity;BME280_pressure;Samples;Min_cycle;Max_cycle;Signal;HPM_P1;HPM_P2
2022/12/24 00:01:58;;;;;;;;;;;;;;;6.23;100.00;100502.69;5085507;28;20371;-75
2022/12/24 00:04:23;;;;;;;;;;;;;;;6.18;100.00;100503.09;5083714;28;19928;-75
2022/12/24 00:06:49;;;;;;;;;;;;;;;6.23;100.00;100499.22;5067799;28;19920;-76
2022/12/24 00:09:14;;;;;;;;;;;;;;;6.24;100.00;100500.91;5086239;28;19951;-76
2022/12/24 00:11:39;;;;;;;;;;;;;;;6.22;100.00;100494.94;5084879;28;19969;-76
2022/12/24 00:14:04;;;;;;;;;;;;;;;6.22;100.00;100500.19;5086571;28;19920;-76
2022/12/24 00:16:30;;;;;;;;;;;;;;;6.13;100.00;100500.00;5069404;28;20302;-76
2022/12/24 00:18:55;;;;;;;;;;;;;;;6.12;100.00;100500.16;5084806;28;20398;-76
2022/12/24 00:21:20;;;;;;;;;;;;;;;6.04;100.00;100485.06;5085304;28;19923;-76
2022/12/24 00:23:46;;;;;;;;;;;;;;;6.20;100.00;100502.09;5086624;28;20347;-76
2022/12/24 00:26:12;;;;;;;;;;;;;;;6.21;100.00;100498.53;5086532;28;19916;-76
2022/12/24 00:28:37;;;;;;;;;;;;;;;6.27;100.00;100498.84;5085240;28;19959;-76
2022/12/24 00:31:06;;;;;;;;;;;;;;;6.27;100.00;100498.00;5066973;28;19995;-76
2022/12/24 00:33:31;;;;;;;;;;;;;;;6.20;100.00;100489.00;5083020;28;19923;-76
2022/12/24 00:35:56;;;;;;;;;;;;;;;6.23;100.00;100489.59;5085357;28;20274;-76
2022/12/24 00:38:21;;;;;;;;;;;;;;;6.27;100.00;100493.59;5085741;28;19924;-76
2022/12/24 00:40:47;;;;;;;;;;;;;;;6.32;100.00;100495.84;5087678;28;19923;-75
2022/12/24 00:43:12;;;;;;;;;;;;;;;6.31;100.00;100497.59;5083231;28;20195;-76
2022/12/24 00:45:37;;;;;;;;;;;;;;;6.27;100.00;100500.63;5083043;28;19919;-75
2022/12/24 00:48:02;;;;;;;;;;;;;;;6.33;100.00;100492.25;5067957;28;20363;-75
2022/12/24 00:50:28;;;;;;;;;;;;;;;6.36;100.00;100494.63;5085736;28;19999;-75
2022/12/24 00:52:53;;;;;;;;;;;;;;;6.36;100.00;100498.06;5083563;28;20002;-75
2022/12/24 00:55:18;;;;;;;;;;;;;;;6.43;100.00;100498.38;5083923;28;20305;-75
2022/12/24 00:57:43;;;;;;;;;;;;;;;6.38;100.00;100503.19;5068837;28;20444;-75
2022/12/24 01:00:09;;;;;;;;;;;;;;;6.43;100.00;100503.59;5085970;28;19920;-75
2022/12/24 01:02:34;;;;;;;;;;;;;;;6.43;100.00;100492.31;5086376;28;19919;-76
2022/12/24 01:05:09;;;;;;;;;;;;;;;6.44;100.00;100484.28;5064202;28;20367;-75
2022/12/24 01:07:34;;;;;;;;;;;;;;;6.54;100.00;100500.88;5065376;28;20367;-76
2022/12/24 01:10:00;;;;;;;;;;;;;;;6.59;100.00;100501.31;5064141;28;19916;-76
2022/12/24 01:12:25;;;;;;;;;;;;;;;6.58;100.00;100502.28;5062777;28;19924;-75
2022/12/24 01:14:50;;;;;;;;;;;;;;;6.67;100.00;100511.16;5064841;28;19935;-76
2022/12/24 01:17:16;;;;;;;;;;;;;;;6.70;100.00;100508.25;5065225;28;20370;-76
2022/12/24 01:19:41;;;;;;;;;;;;;;;6.77;100.00;100513.78;5064451;28;19912;-76
2022/12/24 01:22:06;;;;;;;;;;;;;;;6.75;100.00;100507.84;5065461;28;19924;-76
2022/12/24 01:24:31;;;;;;;;;;;;;;;6.75;100.00;100510.47;5071676;28;20446;-76
2022/12/24 01:26:57;;;;;;;;;;;;;;;6.78;100.00;100518.09;5065047;28;19919;-76
2022/12/24 01:29:22;;;;;;;;;;;;;;;6.70;100.00;100512.66;5063126;28;19928;-76
2022/12/24 01:31:47;;;;;;;;;;;;;;;6.66;100.00;100519.13;5066938;28;19998;-76
2022/12/24 01:34:12;;;;;;;;;;;;;;;6.64;100.00;100515.81;5067652;28;20363;-76
2022/12/24 01:36:38;;;;;;;;;;;;;;;6.72;100.00;100521.25;5067113;28;19920;-76
2022/12/24 01:39:03;;;;;;;;;;;;;;;6.76;100.00;100517.38;5069109;28;19924;-76
2022/12/24 01:44:35;;;;;;;;;;;;;;;6.72;100.00;100511.56;5068081;28;20233;-76
2022/12/24 01:47:14;;;;;;;;;;;;;;;6.65;100.00;100517.50;5074990;28;19912;-76
2022/12/24 01:49:57;;;;;;;;;;;;;;;6.62;100.00;100517.75;5069069;28;19916;-76
2022/12/24 01:52:25;;;;;;;;;;;;;;;6.52;100.00;100521.16;5074156;28;19916;-76
2022/12/24 01:54:52;;;;;;;;;;;;;;;6.51;100.00;100527.38;5083698;28;19920;-76
2022/12/24 01:57:29;;;;;;;;;;;;;;;6.54;100.00;100521.03;5068511;28;20234;-76
2022/12/24 01:59:57;;;;;;;;;;;;;;;6.43;100.00;100526.38;5068059;28;20342;-76
2022/12/24 02:02:23;;;;;;;;;;;;;;;6.41;100.00;100536.97;5067502;28;20641;-76
2022/12/24 02:04:57;;;;;;;;;;;;;;;6.43;100.00;100535.06;5067694;28;19942;-76
2022/12/24 02:07:23;;;;;;;;;;;;;;;6.34;100.00;100535.84;5068810;28;20429;-76
2022/12/24 02:09:52;;;;;;;;;;;;;;;6.39;100.00;100546.75;5070227;28;20014;-75
2022/12/24 02:12:17;;;;;;;;;;;;;;;6.40;100.00;100553.66;5068416;28;20446;-76
2022/12/24 02:14:43;;;;;;;;;;;;;;;6.41;100.00;100555.34;5068036;28;19920;-76
2022/12/24 02:17:27;;;;;;;;;;;;;;;6.41;100.00;100563.19;5067138;28;20564;-76
2022/12/24 02:19:58;;;;;;;;;;;;;;;6.45;100.00;100569.03;5066588;28;20430;-76
2022/12/24 02:22:45;;;;;;;;;;;;;;;6.43;100.00;100570.94;5068003;28;19970;-76
2022/12/24 02:25:29;;;;;;;;;;;;;;;6.42;100.00;100575.31;5067860;28;20218;-76
2022/12/24 02:27:57;;;;;;;;;;;;;;;6.41;100.00;100581.53;5067264;28;20315;-76
2022/12/24 02:30:43;;;;;;;;;;;;;;;6.39;100.00;100586.91;5067619;28;19996;-76
2022/12/24 02:33:13;;;;;;;;;;;;;;;6.34;100.00;100593.50;5057223;28;19916;-76
2022/12/24 02:35:38;;;;;;;;;;;;;;;6.39;100.00;100601.81;5067374;28;19912;-76
2022/12/24 02:38:16;;;;;;;;;;;;;;;6.43;100.00;100592.75;5067057;28;19916;-76
2022/12/24 02:40:45;;;;;;;;;;;;;;;6.45;100.00;100596.06;5068002;28;20161;-76
2022/12/24 02:43:13;;;;;;;;;;;;;;;6.50;100.00;100600.91;5066124;28;19916;-76
2022/12/24 02:45:40;;;;;;;;;;;;;;;6.52;100.00;100602.44;5067644;28;19916;-76
2022/12/24 02:48:07;;;;;;;;;;;;;;;6.51;100.00;100599.94;5066736;28;20302;-76
2022/12/24 02:50:32;;;;;;;;;;;;;;;6.50;100.00;100606.16;5067396;28;20010;-76
2022/12/24 02:52:57;;;;;;;;;;;;;;;6.52;100.00;100601.63;5049413;28;19920;-76
2022/12/24 02:55:46;;;;;;;;;;;;;;;6.45;100.00;100606.53;5065580;28;19927;-76
2022/12/24 02:58:14;;;;;;;;;;;;;;;6.45;100.00;100610.97;5066156;28;20181;-76
2022/12/24 03:00:48;;;;;;;;;;;;;;;6.48;100.00;100610.69;5066683;28;20376;-76
2022/12/24 03:03:34;;;;;;;;;;;;;;;6.45;100.00;100617.03;5066938;28;19972;-76
2022/12/24 03:06:05;;;;;;;;;;;;;;;6.49;100.00;100623.69;5067938;28;19934;-76
2022/12/24 03:08:32;;;;;;;;;;;;;;;6.43;100.00;100615.50;5066014;28;19924;-76
2022/12/24 03:11:07;;;;;;;;;;;;;;;6.46;100.00;100617.84;5067606;28;20416;-76
2022/12/24 03:13:33;;;;;;;;;;;;;;;6.45;100.00;100622.28;5067642;28;20525;-76
2022/12/24 03:15:58;;;;;;;;;;;;;;;6.50;100.00;100627.94;5066787;28;19938;-76
2022/12/24 03:18:25;;;;;;;;;;;;;;;6.48;100.00;100632.50;5066667;28;20019;-76
2022/12/24 03:20:57;;;;;;;;;;;;;;;6.45;100.00;100635.38;5067074;28;20259;-76
2022/12/24 03:23:23;;;;;;;;;;;;;;;6.42;100.00;100635.63;5081921;28;20496;-76
2022/12/24 03:25:48;;;;;;;;;;;;;;;6.53;100.00;100642.59;5065483;28;19958;-76
2022/12/24 03:28:15;;;;;;;;;;;;;;;6.51;100.00;100642.75;5065510;28;20381;-75
2022/12/24 03:30:42;;;;;;;;;;;;;;;6.52;100.00;100641.78;5070719;28;19923;-76
2022/12/24 03:33:07;;;;;;;;;;;;;;;6.48;100.00;100635.13;5066584;28;20660;-76
2022/12/24 03:35:33;;;;;;;;;;;;;;;6.46;100.00;100637.03;5067737;28;19920;-75
2022/12/24 03:37:58;;;;;;;;;;;;;;;6.48;100.00;100642.97;5065276;28;20337;-76
2022/12/24 03:40:23;;;;;;;;;;;;;;;6.44;100.00;100635.50;5067426;28;19919;-75
2022/12/24 03:42:48;;;;;;;;;;;;;;;6.42;100.00;100651.34;5067946;28;19965;-75
2022/12/24 03:45:14;;;;;;;;;;;;;;;6.54;100.00;100660.81;5049785;28;19993;-76
2022/12/24 03:47:39;;;;;;;;;;;;;;;6.65;100.00;100661.72;5068265;28;19919;-76
2022/12/24 03:50:05;;;;;;;;;;;;;;;6.64;100.00;100667.91;5068156;28;20011;-75
2022/12/24 03:52:30;;;;;;;;;;;;;;;6.59;100.00;100671.75;5066985;28;20390;-75
2022/12/24 03:54:55;;;;;;;;;;;;;;;6.62;100.00;100673.31;5049563;28;19963;-76
2022/12/24 03:57:21;;;;;;;;;;;;;;;6.65;100.00;100674.84;5067434;28;19994;-76
2022/12/24 03:59:46;;;;;;;;;;;;;;;6.61;100.00;100670.81;5067133;28;19959;-76
2022/12/24 04:02:11;;;;;;;;;;;;;;;6.72;100.00;100670.72;5066443;28;19920;-76
2022/12/24 04:04:36;;;;;;;;;;;;;;;6.68;100.00;100670.16;5068780;28;19928;-76
2022/12/24 04:07:02;;;;;;;;;;;;;;;6.62;100.00;100665.44;5067452;28;19943;-76
2022/12/24 04:09:27;;;;;;;;;;;;;;;6.63;100.00;100663.66;5068056;28;19920;-76
2022/12/24 04:11:53;;;;;;;;;;;;;;;6.66;100.00;100671.25;5067743;28;19923;-76
2022/12/24 04:14:19;;;;;;;;;;;;;;;6.61;100.00;100668.19;5048757;28;20375;-75
2022/12/24 04:16:44;;;;;;;;;;;;;;;6.62;100.00;100669.84;5066351;28;20080;-76
2022/12/24 04:19:09;;;;;;;;;;;;;;;6.61;100.00;100673.44;5065645;28;20647;-75
2022/12/24 04:21:35;;;;;;;;;;;;;;;6.66;100.00;100679.09;5066150;28;19943;-76
2022/12/24 04:24:00;;;;;;;;;;;;;;;6.70;100.00;100680.50;5066471;28;19927;-76
2022/12/24 04:26:25;;;;;;;;;;;;;;;6.78;100.00;100683.34;5064781;28;20018;-76
2022/12/24 04:28:50;;;;;;;;;;;;;;;6.78;100.00;100688.56;5065218;28;19959;-76
2022/12/24 04:31:16;;;;;;;;;;;;;;;6.85;100.00;100694.97;5065641;28;20225;-76
2022/12/24 04:33:42;;;;;;;;;;;;;;;6.91;100.00;100704.94;5066816;28;19927;-76
2022/12/24 04:36:10;;;;;;;;;;;;;;;6.95;100.00;100705.53;5064907;28;19964;-76
2022/12/24 04:38:35;;;;;;;;;;;;;;;6.99;100.00;100706.94;5067002;28;19922;-76
2022/12/24 04:41:05;;;;;;;;;;;;;;;6.99;100.00;100715.63;5066958;28;20131;-76
2022/12/24 04:43:31;;;;;;;;;;;;;;;7.07;100.00;100711.50;5067222;28;19924;-76
2022/12/24 04:46:02;;;;;;;;;;;;;;;7.10;100.00;100717.34;5065835;28;19916;-75
2022/12/24 04:48:28;;;;;;;;;;;;;;;7.15;100.00;100711.69;5066879;28;19920;-76
2022/12/24 04:50:53;;;;;;;;;;;;;;;7.16;100.00;100715.97;5065445;28;19926;-76
2022/12/24 04:53:18;;;;;;;;;;;;;;;7.22;100.00;100715.44;5064434;28;20289;-75
2022/12/24 04:55:44;;;;;;;;;;;;;;;7.24;100.00;100718.78;5065096;28;19916;-75
2022/12/24 04:58:10;;;;;;;;;;;;;;;7.26;100.00;100716.84;5065348;28;19986;-76
2022/12/24 05:00:35;;;;;;;;;;;;;;;7.31;100.00;100724.34;5066503;28;19921;-75
2022/12/24 05:03:00;;;;;;;;;;;;;;;7.34;100.00;100724.91;5063912;28;20388;-75
2022/12/24 05:05:25;;;;;;;;;;;;;;;7.38;100.00;100718.44;5066492;28;19934;-75
2022/12/24 05:07:51;;;;;;;;;;;;;;;7.41;100.00;100715.53;5071636;28;19916;-75
2022/12/24 05:10:16;;;;;;;;;;;;;;;7.47;100.00;100718.56;5069788;28;20406;-75
2022/12/24 05:12:41;;;;;;;;;;;;;;;7.50;100.00;100716.53;5070717;28;19915;-76
2022/12/24 05:15:07;;;;;;;;;;;;;;;7.52;100.00;100721.66;5051912;28;20360;-76
2022/12/24 05:17:32;;;;;;;;;;;;;;;7.50;100.00;100713.06;5069359;28;20006;-75
2022/12/24 05:19:57;;;;;;;;;;;;;;;7.53;100.00;100716.25;5071001;28;20389;-76
2022/12/24 05:27:53;;;;;;;;;;;;;;;7.47;100.00;100723.84;5070124;28;19927;-76
2022/12/24 05:30:18;;;;;;;;;;;;;;;7.49;100.00;100729.78;5069486;28;20287;-76
2022/12/24 05:32:44;;;;;;;;;;;;;;;7.45;100.00;100731.00;5068353;28;20084;-76
2022/12/24 05:35:09;;;;;;;;;;;;;;;7.45;100.00;100736.25;5070026;28;19943;-76
2022/12/24 05:37:34;;;;;;;;;;;;;;;7.46;100.00;100730.88;5070684;28;19934;-76
2022/12/24 05:39:59;;;;;;;;;;;;;;;7.44;100.00;100737.25;5052834;28;19939;-76
2022/12/24 05:42:25;;;;;;;;;;;;;;;7.44;100.00;100745.13;5067391;28;20438;-76
2022/12/24 05:44:50;;;;;;;;;;;;;;;7.47;100.00;100750.09;5068443;28;19965;-76
2022/12/24 05:47:15;;;;;;;;;;;;;;;7.43;100.00;100753.97;5068304;28;19924;-76
2022/12/24 05:49:40;;;;;;;;;;;;;;;7.36;100.00;100757.13;5069803;28;20396;-76
2022/12/24 05:52:06;;;;;;;;;;;;;;;7.39;100.00;100769.97;5068806;28;20069;-76
2022/12/24 05:54:31;;;;;;;;;;;;;;;7.37;100.00;100761.38;5067535;28;19939;-76
2022/12/24 05:56:56;;;;;;;;;;;;;;;7.45;100.00;100768.63;5051896;28;20410;-76
2022/12/24 05:59:21;;;;;;;;;;;;;;;7.46;100.00;100761.56;5051525;28;20003;-76
2022/12/24 06:01:47;;;;;;;;;;;;;;;7.49;100.00;100774.44;5069125;28;19928;-76
2022/12/24 06:04:12;;;;;;;;;;;;;;;7.53;100.00;100771.41;5069590;28;20410;-76
2022/12/24 06:06:37;;;;;;;;;;;;;;;7.57;100.00;100771.97;5068041;28;19951;-76
2022/12/24 06:09:03;;;;;;;;;;;;;;;7.62;100.00;100781.13;5067529;28;20300;-76
2022/12/24 06:11:28;;;;;;;;;;;;;;;7.66;100.00;100786.94;5078877;28;20339;-76
2022/12/24 06:13:54;;;;;;;;;;;;;;;7.67;100.00;100783.38;5068787;28;19919;-76
2022/12/24 06:16:21;;;;;;;;;;;;;;;7.75;100.00;100793.19;5066657;28;19916;-76
2022/12/24 06:18:46;;;;;;;;;;;;;;;7.81;100.00;100801.38;5065448;28;20298;-76
2022/12/24 06:21:11;;;;;;;;;;;;;;;7.85;100.00;100796.69;5068872;28;19978;-76
2022/12/24 06:23:38;;;;;;;;;;;;;;;7.89;100.00;100800.72;5066218;28;20473;-76
2022/12/24 06:26:05;;;;;;;;;;;;;;;7.94;100.00;100810.81;5066031;28;20377;-76
2022/12/24 06:28:31;;;;;;;;;;;;;;;7.97;100.00;100811.41;5082910;28;20452;-76
2022/12/24 06:30:56;;;;;;;;;;;;;;;7.96;100.00;100806.28;5066999;28;19916;-76
2022/12/24 06:33:22;;;;;;;;;;;;;;;8.02;100.00;100813.63;5067793;28;20312;-76
2022/12/24 06:35:47;;;;;;;;;;;;;;;8.01;100.00;100819.81;5067606;28;20007;-76
2022/12/24 06:38:13;;;;;;;;;;;;;;;8.02;100.00;100818.88;5066071;28;20038;-76
2022/12/24 06:40:38;;;;;;;;;;;;;;;8.07;100.00;100821.09;5067044;28;19916;-76
2022/12/24 06:43:04;;;;;;;;;;;;;;;8.11;100.00;100825.13;5069162;28;20349;-74
2022/12/24 06:45:29;;;;;;;;;;;;;;;8.13;100.00;100834.53;5058269;28;20381;-75
2022/12/24 06:47:54;;;;;;;;;;;;;;;8.10;100.00;100837.44;5066235;28;20057;-76
2022/12/24 06:50:20;;;;;;;;;;;;;;;8.13;100.00;100842.44;5067078;28;20516;-76
2022/12/24 06:52:45;;;;;;;;;;;;;;;8.11;100.00;100844.34;5064639;28;19930;-75
2022/12/24 06:55:10;;;;;;;;;;;;;;;8.11;100.00;100838.28;5066564;28;20277;-75
2022/12/24 06:57:35;;;;;;;;;;;;;;;8.11;100.00;100841.72;5066013;28;20046;-75
2022/12/24 07:00:01;;;;;;;;;;;;;;;8.15;100.00;100837.88;5065199;28;19920;-75
2022/12/24 07:02:26;;;;;;;;;;;;;;;8.17;100.00;100843.00;5066802;28;20061;-76
2022/12/24 07:04:51;;;;;;;;;;;;;;;8.19;100.00;100846.31;5065820;28;20386;-76
2022/12/24 07:07:16;;;;;;;;;;;;;;;8.16;100.00;100846.56;5066111;28;19924;-76
2022/12/24 07:09:42;;;;;;;;;;;;;;;8.19;100.00;100841.91;5066196;28;20165;-76
2022/12/24 07:12:07;;;;;;;;;;;;;;;8.17;100.00;100843.00;5062031;28;19963;-76
2022/12/24 07:14:32;;;;;;;;;;;;;;;8.20;100.00;100840.09;5046930;28;20079;-76
2022/12/24 07:16:57;;;;;;;;;;;;;;;8.21;100.00;100850.47;5065892;28;19924;-76
2022/12/24 07:19:23;;;;;;;;;;;;;;;8.19;100.00;100841.06;5066955;28;20031;-76
2022/12/24 07:21:48;;;;;;;;;;;;;;;8.21;100.00;100857.53;5071214;28;19923;-76
2022/12/24 07:24:14;;;;;;;;;;;;;;;8.26;100.00;100854.50;5063816;28;19916;-76
2022/12/24 07:26:39;;;;;;;;;;;;;;;8.26;100.00;100852.69;5064174;28;19947;-76
2022/12/24 07:29:04;;;;;;;;;;;;;;;8.26;100.00;100851.88;5064227;28;20319;-76
2022/12/24 07:31:30;;;;;;;;;;;;;;;8.30;100.00;100856.72;5061165;28;19975;-76
2022/12/24 07:33:55;;;;;;;;;;;;;;;8.33;100.00;100863.50;5070842;28;19927;-77
2022/12/24 07:36:20;;;;;;;;;;;;;;;8.33;100.00;100864.34;5062979;28;20351;-76
2022/12/24 07:38:46;;;;;;;;;;;;;;;8.35;100.00;100869.47;5047950;28;20298;-76
2022/12/24 07:41:11;;;;;;;;;;;;;;;8.34;100.00;100871.28;5064081;28;19968;-76
2022/12/24 07:43:37;;;;;;;;;;;;;;;8.38;100.00;100874.44;5064736;28;19920;-76
2022/12/24 07:46:02;;;;;;;;;;;;;;;8.44;100.00;100889.72;5068491;28;19923;-76
2022/12/24 07:48:28;;;;;;;;;;;;;;;8.41;100.00;100874.22;5067225;28;19916;-76
2022/12/24 07:50:54;;;;;;;;;;;;;;;8.47;100.00;100886.00;5067321;28;19966;-76
2022/12/24 07:53:19;;;;;;;;;;;;;;;8.39;100.00;100890.09;5068482;28;20043;-76
2022/12/24 07:55:44;;;;;;;;;;;;;;;8.45;100.00;100896.66;5067532;28;19920;-76
2022/12/24 07:58:09;;;;;;;;;;;;;;;8.37;100.00;100897.28;5066563;28;20416;-77
2022/12/24 08:00:35;;;;;;;;;;;;;;;8.36;100.00;100894.78;5066056;28;19931;-76
2022/12/24 08:03:00;;;;;;;;;;;;;;;8.28;100.00;100900.72;5066280;28;19920;-76
2022/12/24 08:05:26;;;;;;;;;;;;;;;8.24;100.00;100908.03;5067129;28;20007;-76
2022/12/24 08:07:51;;;;;;;;;;;;;;;8.21;100.00;100913.56;5068375;28;19927;-77
2022/12/24 08:10:16;;;;;;;;;;;;;;;8.26;100.00;100920.25;5068949;28;19927;-77
2022/12/24 08:12:42;;;;;;;;;;;;;;;8.22;100.00;100917.84;5068376;28;19916;-78
2022/12/24 08:15:07;;;;;;;;;;;;;;;8.30;100.00;100932.97;5073857;28;19920;-76
2022/12/24 08:17:32;;;;;;;;;;;;;;;8.31;100.00;100934.63;5066751;28;19919;-74
2022/12/24 08:19:58;;;;;;;;;;;;;;;8.33;100.00;100930.06;5051637;28;20387;-77
2022/12/24 08:22:23;;;;;;;;;;;;;;;8.32;100.00;100933.69;5051410;28;20130;-76
2022/12/24 08:24:48;;;;;;;;;;;;;;;8.29;100.00;100931.31;5049222;28;20006;-75
2022/12/24 08:27:13;;;;;;;;;;;;;;;8.30;100.00;100926.91;5066963;28;19920;-76
2022/12/24 08:29:39;;;;;;;;;;;;;;;8.26;100.00;100931.59;5066733;28;20062;-76
2022/12/24 08:32:04;;;;;;;;;;;;;;;8.31;100.00;100944.31;5064411;28;20029;-76
2022/12/24 08:34:30;;;;;;;;;;;;;;;8.28;100.00;100939.34;5066288;28;19919;-76
2022/12/24 08:36:56;;;;;;;;;;;;;;;8.33;100.00;100942.41;5048338;28;20686;-76
2022/12/24 08:39:21;;;;;;;;;;;;;;;8.39;100.00;100952.41;5064759;28;19920;-76
2022/12/24 08:41:46;;;;;;;;;;;;;;;8.47;100.00;100949.97;5063674;28;19930;-76
2022/12/24 08:44:11;;;;;;;;;;;;;;;8.51;100.00;100958.41;5049174;28;20613;-76
2022/12/24 08:46:37;;;;;;;;;;;;;;;8.53;100.00;100965.19;5064964;28;19927;-76
2022/12/24 08:49:02;;;;;;;;;;;;;;;8.60;100.00;100968.97;5065556;28;20203;-76
2022/12/24 08:51:27;;;;;;;;;;;;;;;8.69;100.00;100969.97;5047626;28;19920;-76
2022/12/24 08:53:52;;;;;;;;;;;;;;;8.70;100.00;100963.72;5064574;28;19919;-76
2022/12/24 08:56:18;;;;;;;;;;;;;;;8.74;100.00;100959.03;5064096;28;20012;-76
2022/12/24 08:58:43;;;;;;;;;;;;;;;8.71;100.00;100957.50;5062673;28;20383;-76
2022/12/24 09:01:09;;;;;;;;;;;;;;;8.73;100.00;100965.25;5065897;28;20353;-76
2022/12/24 09:03:34;;;;;;;;;;;;;;;8.77;100.00;100971.91;5064235;28;19973;-76
2022/12/24 09:06:02;;;;;;;;;;;;;;;8.74;100.00;100980.91;5063851;28;19924;-76
2022/12/24 09:08:27;;;;;;;;;;;;;;;8.77;100.00;100983.25;5064826;28;20015;-76
2022/12/24 09:10:53;;;;;;;;;;;;;;;8.87;100.00;100993.81;5072484;28;20143;-76
2022/12/24 09:13:18;;;;;;;;;;;;;;;8.87;100.00;100998.25;5064774;28;19952;-76
2022/12/24 09:15:51;;;;;;;;;;;;;;;8.86;100.00;100997.41;5065899;28;20033;-76
2022/12/24 09:18:16;;;;;;;;;;;;;;;8.85;100.00;101001.03;5062811;28;20023;-77
2022/12/24 09:20:41;;;;;;;;;;;;;;;8.84;100.00;101004.59;5071308;28;20017;-77
2022/12/24 09:23:07;;;;;;;;;;;;;;;8.86;100.00;101018.47;5065039;28;19923;-77
2022/12/24 09:25:32;;;;;;;;;;;;;;;8.89;100.00;101018.22;5072813;28;19911;-76
2022/12/24 09:27:57;;;;;;;;;;;;;;;8.92;100.00;101023.19;5063565;28;20159;-76
2022/12/24 09:30:25;;;;;;;;;;;;;;;8.89;100.00;101023.47;5063437;28;20316;-76
2022/12/24 09:32:51;;;;;;;;;;;;;;;8.95;100.00;101022.94;5063659;28;19912;-77
2022/12/24 09:35:16;;;;;;;;;;;;;;;9.04;100.00;101029.19;5064964;28;20359;-76
2022/12/24 09:37:41;;;;;;;;;;;;;;;9.30;100.00;101031.28;5066096;28;19912;-77
2022/12/24 09:40:15;;;;;;;;;;;;;;;9.66;100.00;101035.06;5062941;28;20332;-77
2022/12/24 09:42:51;;;;;;;;;;;;;;;9.87;100.00;101030.47;5064118;28;20353;-77
2022/12/24 09:45:16;;;;;;;;;;;;;;;9.86;100.00;101015.63;5065550;28;20136;-77
2022/12/24 09:47:56;;;;;;;;;;;;;;;11.00;100.00;101018.13;5065704;28;20127;-77
2022/12/24 09:50:30;;;;;;;;;;;;;;;11.51;100.00;101006.06;5073548;28;19955;-77
2022/12/24 09:52:57;;;;;;;;;;;;;;;11.44;100.00;100978.59;5068945;28;19912;-77
2022/12/24 09:55:27;;;;;;;;;;;;;;;11.66;100.00;100957.94;5070105;28;19957;-77
2022/12/24 09:57:53;;;;;;;;;;;;;;;11.45;100.00;100959.13;5070030;28;19938;-77
2022/12/24 10:00:24;;;;;;;;;;;;;;;11.03;100.00;100941.25;5068050;28;19911;-77
2022/12/24 10:02:49;;;;;;;;;;;;;;;10.75;100.00;100937.81;5075775;28;20014;-77
2022/12/24 10:05:16;;;;;;;;;;;;;;;10.52;100.00;100942.69;5071082;28;20250;-77
2022/12/24 10:07:41;;;;;;;;;;;;;;;10.38;100.00;100959.00;5068550;28;19916;-77
2022/12/24 10:10:12;;;;;;;;;;;;;;;10.90;100.00;100964.53;5068801;28;20440;-77
2022/12/24 10:12:55;;;;;;;;;;;;;;;11.64;100.00;100973.13;5071010;28;19916;-77
2022/12/24 10:15:29;;;;;;;;;;;;;;;11.79;100.00;100961.00;5068800;28;19929;-77
2022/12/24 10:18:00;;;;;;;;;;;;;;;11.87;100.00;100955.78;5070052;28;19912;-77
2022/12/24 10:20:25;;;;;;;;;;;;;;;11.47;100.00;100951.84;5068461;28;19915;-77
2022/12/24 10:23:00;;;;;;;;;;;;;;;11.01;100.00;100939.72;5068413;28;19973;-77
2022/12/24 10:25:40;;;;;;;;;;;;;;;10.80;100.00;100959.34;5067481;28;19912;-77
2022/12/24 10:28:12;;;;;;;;;;;;;;;10.75;100.00;100947.56;5068098;28;19912;-77
2022/12/24 10:30:37;;;;;;;;;;;;;;;10.62;100.00;100963.75;5067120;28;20024;-77
2022/12/24 10:33:09;;;;;;;;;;;;;;;10.47;100.00;100960.75;5068274;28;20553;-77
2022/12/24 10:35:39;;;;;;;;;;;;;;;10.44;100.00;100961.06;5069149;28;19970;-76
2022/12/24 10:38:04;;;;;;;;;;;;;;;10.51;100.00;100964.75;5073818;28;19919;-77
2022/12/24 10:40:39;;;;;;;;;;;;;;;10.39;100.00;100973.88;5074262;28;19960;-77
2022/12/24 10:43:12;;;;;;;;;;;;;;;10.27;100.00;100974.00;5067809;28;19939;-77
2022/12/24 10:45:40;;;;;;;;;;;;;;;10.23;100.00;100991.09;5068558;28;20047;-77
2022/12/24 10:48:08;;;;;;;;;;;;;;;10.17;100.00;100986.41;5072823;28;19912;-77
2022/12/24 10:50:38;;;;;;;;;;;;;;;10.09;100.00;100987.13;5067880;28;19959;-77
2022/12/24 10:53:11;;;;;;;;;;;;;;;10.06;100.00;100984.78;5084061;28;20383;-77
2022/12/24 10:55:36;;;;;;;;;;;;;;;10.24;100.00;100998.03;5066608;28;19923;-77
2022/12/24 10:58:04;;;;;;;;;;;;;;;10.35;100.00;100997.06;5066594;28;19916;-77
2022/12/24 11:00:30;;;;;;;;;;;;;;;10.41;100.00;101003.56;5073645;28;20618;-77
2022/12/24 11:03:11;;;;;;;;;;;;;;;10.25;100.00;101002.31;5066253;28;19922;-77
2022/12/24 11:05:37;;;;;;;;;;;;;;;10.41;100.00;100998.28;5067918;28;20412;-78
2022/12/24 11:08:13;;;;;;;;;;;;;;;10.44;100.00;101006.75;5070506;28;19980;-78
2022/12/24 11:10:41;;;;;;;;;;;;;;;10.48;100.00;100999.38;5069018;28;20386;-78
2022/12/24 11:13:21;;;;;;;;;;;;;;;10.43;100.00;101004.25;5068432;28;20018;-75
2022/12/24 11:15:48;;;;;;;;;;;;;;;10.52;100.00;101008.66;5065363;28;20019;-78
2022/12/24 11:18:14;;;;;;;;;;;;;;;10.45;100.00;100991.72;5065482;28;19943;-76
2022/12/24 11:20:40;;;;;;;;;;;;;;;10.43;100.00;100996.31;5065753;28;19921;-77
2022/12/24 11:23:05;;;;;;;;;;;;;;;10.37;100.00;101007.47;5066473;28;19916;-76
2022/12/24 11:25:33;;;;;;;;;;;;;;;10.31;100.00;101005.41;5065996;28;19923;-77
2022/12/24 11:28:21;;;;;;;;;;;;;;;10.32;100.00;101001.78;5065034;28;19924;-76
2022/12/24 11:30:59;;;;;;;;;;;;;;;10.32;100.00;101007.06;5056796;28;20303;-77
2022/12/24 11:33:24;;;;;;;;;;;;;;;10.32;100.00;101012.34;5067399;28;19916;-76
2022/12/24 11:36:12;;;;;;;;;;;;;;;10.31;100.00;101021.25;5067987;28;19943;-76
2022/12/24 11:38:37;;;;;;;;;;;;;;;10.43;100.00;101028.84;5068347;28;19916;-76
2022/12/24 11:41:04;;;;;;;;;;;;;;;10.42;100.00;101024.53;5067774;28;20028;-76
2022/12/24 11:43:43;;;;;;;;;;;;;;;10.44;100.00;101025.22;5066602;28;19935;-76
2022/12/24 11:46:26;;;;;;;;;;;;;;;10.33;100.00;101024.56;5067360;28;20420;-76
2022/12/24 11:49:10;;;;;;;;;;;;;;;10.25;100.00;101025.25;5065637;28;20003;-74
2022/12/24 11:51:36;;;;;;;;;;;;;;;10.19;100.00;101029.31;5066490;28;20329;-73
2022/12/24 11:54:23;;;;;;;;;;;;;;;10.28;100.00;101033.72;5064896;28;19930;-73
2022/12/24 11:56:51;;;;;;;;;;;;;;;10.26;100.00;101032.19;5065480;28;19987;-72
2022/12/24 11:59:29;;;;;;;;;;;;;;;10.28;100.00;101035.53;5065363;28;20151;-74
2022/12/24 12:02:15;;;;;;;;;;;;;;;10.22;100.00;101042.19;5063338;28;19916;-73
2022/12/24 12:04:43;;;;;;;;;;;;;;;10.23;100.00;101043.00;5063723;28;20031;-74
2022/12/24 12:07:11;;;;;;;;;;;;;;;10.36;100.00;101045.38;5064406;28;20058;-73
2022/12/24 12:09:40;;;;;;;;;;;;;;;10.38;100.00;101043.44;5064151;28;19946;-73
2022/12/24 12:12:08;;;;;;;;;;;;;;;10.28;100.00;101046.06;5064493;28;19915;-73
2022/12/24 12:14:37;;;;;;;;;;;;;;;10.28;100.00;101039.00;5064319;28;19920;-75
2022/12/24 12:17:06;;;;;;;;;;;;;;;10.21;100.00;101042.31;5060158;28;19916;-75
2022/12/24 12:19:36;;;;;;;;;;;;;;;10.34;100.00;101045.50;5059852;28;20360;-74
2022/12/24 12:22:04;;;;;;;;;;;;;;;10.45;100.00;101050.63;5061667;28;20376;-75
2022/12/24 12:24:33;;;;;;;;;;;;;;;10.42;100.00;101047.44;5062243;28;19923;-75
2022/12/24 12:27:17;;;;;;;;;;;;;;;10.54;100.00;101054.22;5060486;28;19924;-75
2022/12/24 12:29:45;;;;;;;;;;;;;;;10.38;100.00;101049.53;5059584;28;20358;-75
2022/12/24 12:32:15;;;;;;;;;;;;;;;10.42;100.00;101061.47;5061487;28;19986;-75
2022/12/24 12:34:43;;;;;;;;;;;;;;;10.48;100.00;101066.16;5056136;28;19970;-75
2022/12/24 12:37:12;;;;;;;;;;;;;;;10.51;100.00;101062.41;5068308;28;20184;-74
2022/12/24 12:39:37;;;;;;;;;;;;;;;10.34;100.00;101071.88;5064614;28;19927;-73
2022/12/24 12:42:21;;;;;;;;;;;;;;;10.35;100.00;101072.75;5065002;28;19920;-74
2022/12/24 12:45:03;;;;;;;;;;;;;;;10.40;100.00;101081.88;5067675;28;20326;-74
2022/12/24 12:47:32;;;;;;;;;;;;;;;10.28;100.00;101070.63;5065838;28;19966;-78